Time;durP1;ratioP1;P1;durP2;ratioP2;P2;SDS_P1;SDS_P2;PMS_P1;PMS_P2;Temp;Humidity;BMP_temperature;BMP_pressure;BME280_temperature;BME280_humidity;BME280_pressure;Samples;Min_cycle;Max_cycle;Signal;HPM_P1;HPM_P2
2022/07/25 00:00:27;;;;;;;10.73;6.97;;;;;;;23.98;61.07;100302.95;126718;1099;104317;-78
2022/07/25 00:03:11;;;;;;;13.33;7.40;;;;;;;23.90;61.21;100304.94;126448;1099;104169;-79
2022/07/25 00:05:51;;;;;;;12.90;7.37;;;;;;;23.86;61.97;100305.00;126394;1099;104239;-79
2022/07/25 00:08:32;;;;;;;13.33;7.57;;;;;;;23.82;62.21;100297.91;127774;1098;101964;-79
2022/07/25 00:11:07;;;;;;;12.83;7.27;;;;;;;23.77;61.92;100296.27;127210;1098;104277;-79
2022/07/25 00:13:41;;;;;;;13.90;7.83;;;;;;;23.73;62.16;100297.23;127250;1099;103012;-78
2022/07/25 00:16:20;;;;;;;12.27;7.73;;;;;;;23.68;62.28;100303.59;127249;1098;101639;-78
2022/07/25 00:18:52;;;;;;;16.63;7.83;;;;;;;23.68;62.60;100300.01;127758;1098;101922;-79
2022/07/25 00:21:50;;;;;;;12.40;7.40;;;;;;;23.64;62.55;100303.69;127022;1098;102175;-78
2022/07/25 00:24:22;;;;;;;12.60;7.47;;;;;;;23.60;62.67;100308.20;127154;1098;101761;-78
2022/07/25 00:26:56;;;;;;;12.93;7.43;;;;;;;23.55;62.96;100306.56;126290;1099;103044;-78
2022/07/25 00:29:40;;;;;;;;;;;;;;;;;;;;;
2022/07/25 00:32:17;;;;;;;13.47;7.90;;;;;;;23.53;63.00;100300.33;127246;1098;102078;-79
2022/07/25 00:34:54;;;;;;;13.27;7.30;;;;;;;23.51;63.18;100308.39;126849;1099;101693;-78
2022/07/25 00:37:34;;;;;;;13.17;7.83;;;;;;;23.48;63.57;100303.10;126889;1099;104221;-79
2022/07/25 00:40:10;;;;;;;13.00;7.50;;;;;;;23.45;64.05;100303.17;125807;1099;104099;-78
2022/07/25 00:42:46;;;;;;;12.17;7.70;;;;;;;23.38;63.59;100307.78;125462;1099;104187;-78
2022/07/25 00:45:22;;;;;;;13.90;7.70;;;;;;;23.33;63.52;100310.55;125945;1100;104325;-79
2022/07/25 00:48:02;;;;;;;11.83;7.53;;;;;;;23.28;64.21;100314.21;126087;1099;104236;-79
2022/07/25 00:50:34;;;;;;;12.63;7.70;;;;;;;23.25;63.76;100309.83;125982;1099;102401;-79
2022/07/25 00:53:10;;;;;;;11.93;7.63;;;;;;;23.21;64.24;100305.43;125962;1099;101986;-79
2022/07/25 00:55:42;;;;;;;14.40;7.83;;;;;;;23.21;64.30;100315.27;125949;1099;101752;-79
2022/07/25 00:58:35;;;;;;;11.57;7.30;;;;;;;23.19;64.30;100312.62;125500;1099;103200;-78
2022/07/25 01:01:18;;;;;;;11.93;7.20;;;;;;;23.16;64.19;100307.33;125665;1102;102995;-79
2022/07/25 01:04:01;;;;;;;12.07;6.93;;;;;;;23.15;63.87;100314.48;125460;1102;104283;-79
2022/07/25 01:06:33;;;;;;;12.70;7.10;;;;;;;23.14;64.22;100314.52;125443;1102;104172;-79
2022/07/25 01:09:22;;;;;;;12.37;7.83;;;;;;;23.12;63.74;100309.19;126283;1099;101653;-79
2022/07/25 01:11:55;;;;;;;14.30;8.07;;;;;;;23.12;64.76;100308.28;126304;1099;103462;-78
2022/07/25 01:14:31;;;;;;;13.90;8.00;;;;;;;23.10;64.39;100307.44;126625;1098;102142;-79
2022/07/25 01:17:08;;;;;;;12.70;7.70;;;;;;;23.08;64.42;100311.91;126002;1099;104204;-79
2022/07/25 01:19:42;;;;;;;11.73;7.70;;;;;;;23.07;64.88;100307.47;126347;1102;102752;-79
2022/07/25 01:22:16;;;;;;;12.00;8.00;;;;;;;23.06;64.72;100316.39;126226;1099;102056;-79
2022/07/25 01:24:56;;;;;;;11.90;7.60;;;;;;;23.03;64.24;100311.09;126051;1098;102139;-79
2022/07/25 01:27:39;;;;;;;12.07;7.60;;;;;;;23.00;65.31;100308.48;125710;1099;102327;-79
2022/07/25 01:30:35;;;;;;;11.93;7.60;;;;;;;22.96;64.98;100305.86;126039;1099;101881;-79
2022/07/25 01:33:12;;;;;;;14.40;8.00;;;;;;;22.93;65.08;100305.05;126183;1099;104238;-79
2022/07/25 01:35:54;;;;;;;13.03;7.70;;;;;;;22.88;65.18;100302.45;126316;1099;102222;-79
2022/07/25 01:38:34;;;;;;;13.60;7.80;;;;;;;22.86;65.48;100314.08;127386;1098;101994;-79
2022/07/25 01:41:08;;;;;;;15.57;8.07;;;;;;;22.85;65.05;100302.51;126499;1099;104198;-79
2022/07/25 01:43:45;;;;;;;13.90;7.87;;;;;;;22.85;65.66;100299.83;126995;1098;102168;-80
2022/07/25 01:46:19;;;;;;;12.10;7.60;;;;;;;22.84;65.08;100307.88;126839;1099;102111;-78
2022/07/25 01:48:57;;;;;;;13.10;7.97;;;;;;;22.82;64.91;100305.23;126540;1099;104034;-79
2022/07/25 01:51:33;;;;;;;14.90;7.87;;;;;;;22.82;65.55;100302.56;127414;1099;102233;-79
2022/07/25 01:54:08;;;;;;;12.57;8.17;;;;;;;22.80;65.51;100299.91;127024;1099;104060;-79
2022/07/25 01:56:52;;;;;;;13.00;7.70;;;;;;;22.78;65.53;100306.19;127693;1098;101520;-79
2022/07/25 02:00:02;;;;;;;11.80;7.67;;;;;;;22.75;65.46;100306.24;127179;1098;104194;-78
2022/07/25 02:02:47;;;;;;;13.93;7.90;;;;;;;22.73;65.55;100308.94;126909;1097;102232;-79
2022/07/25 02:05:41;;;;;;;11.33;7.57;;;;;;;22.72;65.28;100314.32;127188;1099;102297;-79
2022/07/25 02:08:17;;;;;;;13.60;8.40;;;;;;;22.69;65.78;100317.95;126515;1099;104078;-79
2022/07/25 02:11:14;;;;;;;12.40;7.85;;;;;;;22.70;65.51;100305.45;127825;1098;101495;-79
2022/07/25 02:13:52;;;;;;;13.13;8.13;;;;;;;22.64;65.98;100316.25;126180;1099;104217;-79
2022/07/25 02:16:24;;;;;;;15.20;8.93;;;;;;;22.55;65.73;100323.53;126525;1099;101791;-80
2022/07/25 02:18:57;;;;;;;15.00;8.70;;;;;;;22.52;66.06;100312.88;126761;1099;103016;-79
2022/07/25 02:21:31;;;;;;;14.13;8.90;;;;;;;22.50;65.77;100317.38;126261;1099;102710;-79
2022/07/25 02:24:03;;;;;;;13.30;8.90;;;;;;;22.47;66.35;100316.53;126349;1099;101776;-79
2022/07/25 02:26:55;;;;;;;13.73;8.77;;;;;;;22.43;66.34;100321.05;126666;1099;104054;-79
2022/07/25 02:29:32;;;;;;;13.67;8.43;;;;;;;22.40;66.51;100321.97;126025;1099;104284;-78
2022/07/25 02:32:17;;;;;;;15.00;9.13;;;;;;;22.38;66.87;100320.25;126728;1099;104203;-79
2022/07/25 02:34:51;;;;;;;13.97;8.93;;;;;;;22.38;66.58;100323.80;125991;1099;104268;-79
2022/07/25 02:37:23;;;;;;;13.13;8.70;;;;;;;22.37;67.80;100334.52;125958;1099;102158;-78
2022/07/25 02:40:02;;;;;;;15.73;9.37;;;;;;;22.32;67.05;100345.27;125895;1099;104380;-79
2022/07/25 02:42:44;;;;;;;14.70;9.37;;;;;;;22.29;67.15;100349.77;126757;1099;102867;-79
2022/07/25 02:45:17;;;;;;;15.10;9.20;;;;;;;22.26;67.70;100348.87;127280;1099;101965;-78
2022/07/25 02:47:51;;;;;;;16.53;9.80;;;;;;;22.23;67.17;100356.06;126199;1099;101933;-79
2022/07/25 02:50:23;;;;;;;14.47;8.73;;;;;;;22.16;67.86;100354.38;126877;1099;101881;-79
2022/07/25 02:52:56;;;;;;;16.17;9.80;;;;;;;22.13;68.15;100359.77;126718;1098;104415;-79
2022/07/25 02:55:28;;;;;;;15.97;9.50;;;;;;;22.13;68.08;100349.08;126866;1099;102063;-79
2022/07/25 02:57:59;;;;;;;16.47;9.20;;;;;;;22.09;68.05;100358.94;126859;1098;104246;-78
2022/07/25 03:00:40;;;;;;;13.77;8.67;;;;;;;22.07;68.52;100366.09;126291;1099;101727;-79
2022/07/25 03:03:13;;;;;;;16.00;9.80;;;;;;;22.02;68.64;100367.95;126150;1099;104232;-79
2022/07/25 03:05:49;;;;;;;16.43;9.57;;;;;;;22.00;68.49;100373.32;126568;1099;103335;-79
2022/07/25 03:08:27;;;;;;;15.60;9.10;;;;;;;21.97;69.56;100373.36;126629;1099;104237;-79
2022/07/25 03:11:08;;;;;;;15.73;9.03;;;;;;;21.92;69.07;100371.64;125273;1099;104169;-79
2022/07/25 03:13:53;;;;;;;16.43;9.43;;;;;;;21.84;69.56;100369.94;125290;1099;104364;-79
2022/07/25 03:16:37;;;;;;;14.83;9.17;;;;;;;21.84;69.15;100369.07;125568;1099;101871;-79
2022/07/25 03:19:13;;;;;;;15.32;8.88;;;;;;;21.83;69.01;100370.88;125316;1099;102987;-78
2022/07/25 03:21:53;;;;;;;15.37;9.47;;;;;;;21.80;69.57;100375.34;126059;1099;102054;-79
2022/07/25 03:24:30;;;;;;;15.03;9.00;;;;;;;21.76;69.52;100382.52;125980;1099;102372;-79
2022/07/25 03:27:05;;;;;;;17.97;9.60;;;;;;;21.74;68.52;100381.66;125332;1099;104245;-79
2022/07/25 03:29:44;;;;;;;15.63;8.73;;;;;;;21.76;68.36;100386.98;125751;1099;102228;-79
2022/07/25 03:32:18;;;;;;;16.77;10.10;;;;;;;21.77;69.43;100388.73;126124;1099;104166;-78
2022/07/25 03:34:50;;;;;;;17.13;9.13;;;;;;;21.71;68.44;100389.71;126084;1099;104233;-79
2022/07/25 03:37:51;;;;;;;18.87;9.30;;;;;;;21.69;69.43;100389.73;125984;1099;104280;-78
2022/07/25 03:40:30;;;;;;;16.95;8.70;;;;;;;21.69;69.04;100396.83;127028;1098;101863;-79
2022/07/25 03:43:02;;;;;;;14.40;8.67;;;;;;;21.65;69.70;100397.80;125973;1099;102388;-79
2022/07/25 03:45:38;;;;;;;15.00;8.90;;;;;;;21.67;68.69;100398.65;125864;1099;104169;-79
2022/07/25 03:48:17;;;;;;;15.53;9.03;;;;;;;21.70;68.76;100401.28;125343;1099;104235;-79
2022/07/25 03:50:52;;;;;;;15.53;8.90;;;;;;;21.70;68.85;100399.48;126574;1099;104264;-79
2022/07/25 03:53:28;;;;;;;15.65;8.90;;;;;;;21.74;68.11;100403.03;126863;1097;104197;-79
2022/07/25 03:56:21;;;;;;;17.63;8.93;;;;;;;21.78;68.85;100401.20;126002;1099;102117;-79
2022/07/25 03:59:00;;;;;;;17.20;9.63;;;;;;;21.78;68.34;100407.41;126587;1098;102152;-79
2022/07/25 04:01:32;;;;;;;14.63;8.27;;;;;;;21.79;68.58;100402.97;125698;1099;104330;-78
2022/07/25 04:04:06;;;;;;;16.07;9.10;;;;;;;21.81;68.59;100403.83;126620;1098;103569;-79
2022/07/25 04:06:43;;;;;;;14.53;8.20;;;;;;;21.82;67.79;100406.48;125687;1099;104313;-78
2022/07/25 04:09:19;;;;;;;14.07;8.40;;;;;;;21.86;68.35;100407.31;125722;1099;103212;-78
2022/07/25 04:11:55;;;;;;;14.30;8.27;;;;;;;21.88;67.67;100405.53;125675;1098;104261;-78
2022/07/25 04:14:36;;;;;;;14.93;8.87;;;;;;;21.90;67.51;100403.72;125741;1099;104172;-78
2022/07/25 04:17:09;;;;;;;16.50;8.27;;;;;;;21.93;67.35;100403.68;125675;1099;102784;-79
2022/07/25 04:19:43;;;;;;;15.30;7.90;;;;;;;21.99;67.27;100410.74;125718;1099;104316;-79
2022/07/25 04:22:23;;;;;;;15.80;7.77;;;;;;;22.03;67.00;100409.78;125748;1099;104166;-79
2022/07/25 04:24:56;;;;;;;17.00;7.93;;;;;;;22.02;66.58;100416.05;125973;1099;104179;-79
2022/07/25 04:27:30;;;;;;;13.97;7.97;;;;;;;22.00;66.93;100423.17;125784;1099;102110;-80
2022/07/25 04:30:07;;;;;;;12.03;6.97;;;;;;;21.97;66.38;100417.87;125852;1099;104166;-79
2022/07/25 04:33:09;;;;;;;13.57;7.60;;;;;;;21.96;66.21;100421.47;125670;1099;102127;-80
2022/07/25 04:35:41;;;;;;;13.63;7.57;;;;;;;21.96;65.20;100418.80;125891;1099;102271;-79
2022/07/25 04:38:14;;;;;;;11.70;6.43;;;;;;;21.93;65.69;100427.72;125771;1099;102825;-79
2022/07/25 04:40:45;;;;;;;13.25;6.50;;;;;;;21.96;64.90;100426.81;125756;1099;104169;-79
2022/07/25 04:43:17;;;;;;;11.27;6.83;;;;;;;22.03;65.52;100425.81;125799;1099;104200;-79
2022/07/25 04:46:00;;;;;;;12.33;6.53;;;;;;;22.10;64.89;100427.52;125753;1099;102419;-79
2022/07/25 04:48:48;;;;;;;11.33;6.63;;;;;;;22.17;64.40;100430.98;125780;1099;102245;-79
2022/07/25 04:51:25;;;;;;;11.07;7.10;;;;;;;22.19;64.59;100432.73;125699;1099;104178;-79
2022/07/25 04:54:08;;;;;;;10.70;6.10;;;;;;;22.24;63.35;100428.20;125703;1098;104217;-79
2022/07/25 04:56:39;;;;;;;13.00;6.50;;;;;;;22.22;63.14;100431.79;125751;1099;102998;-79
2022/07/25 04:59:17;;;;;;;11.27;5.83;;;;;;;22.22;63.24;100439.81;125688;1099;104223;-79
2022/07/25 05:01:57;;;;;;;9.50;5.40;;;;;;;22.16;62.75;100437.22;125155;1099;101844;-78
2022/07/25 05:04:42;;;;;;;11.27;5.20;;;;;;;22.16;62.72;100434.55;126609;1098;104373;-79
2022/07/25 05:07:22;;;;;;;10.50;5.10;;;;;;;22.16;62.38;100429.20;125753;1099;104264;-79
2022/07/25 05:10:03;;;;;;;10.30;5.20;;;;;;;22.19;61.32;100430.06;125771;1099;104328;-79
2022/07/25 05:12:53;;;;;;;11.53;5.30;;;;;;;22.22;61.32;100432.70;125707;1099;104162;-80
2022/07/25 05:15:30;;;;;;;12.53;5.10;;;;;;;22.17;60.59;100433.65;127196;1098;102653;-80
2022/07/25 05:18:15;;;;;;;7.60;4.70;;;;;;;22.21;60.20;100427.37;125777;1099;104165;-80
2022/07/25 05:20:53;;;;;;;9.43;4.83;;;;;;;22.19;59.78;100418.47;125147;1099;104432;-80
2022/07/25 05:23:30;;;;;;;8.87;4.77;;;;;;;22.21;59.98;100430.05;126106;1101;103051;-80
2022/07/25 05:26:11;;;;;;;10.33;4.87;;;;;;;22.21;58.98;100428.25;125281;1099;104252;-79
2022/07/25 05:28:46;;;;;;;7.53;4.50;;;;;;;22.19;58.24;100430.06;125971;1100;101940;-78
2022/07/25 05:31:23;;;;;;;9.37;4.50;;;;;;;22.20;58.04;100425.59;125042;1099;102313;-78
2022/07/25 05:34:05;;;;;;;7.93;4.27;;;;;;;22.16;56.98;100422.09;125270;1099;104355;-78
2022/07/25 05:37:20;;;;;;;4.57;3.73;;;;;;;22.17;56.73;100426.50;125840;1099;102839;-78
2022/07/25 05:40:01;;;;;;;7.40;3.87;;;;;;;22.21;55.60;100430.05;126802;1099;104377;-78
2022/07/25 05:42:57;;;;;;;9.00;4.23;;;;;;;22.27;56.41;100424.62;125943;1099;102841;-78
2022/07/25 05:46:16;;;;;;;6.43;3.90;;;;;;;22.36;56.74;100426.29;126574;1098;104236;-78
2022/07/25 05:48:57;;;;;;;6.30;4.10;;;;;;;22.43;55.41;100427.98;125381;1102;104223;-78
2022/07/25 05:51:50;;;;;;;;;;;;;;;22.48;53.55;100434.14;126422;1099;102268;-78
2022/07/25 05:57:55;;;;;;;5.67;3.70;;;;;;;22.54;54.96;100425.16;126295;1102;101650;-80
2022/07/25 06:01:22;;;;;;;;;;;;;;;;;;;;;
2022/07/25 06:04:05;;;;;;;5.80;3.80;;;;;;;22.69;54.82;100418.67;125595;1102;104354;-78
2022/07/25 06:06:54;;;;;;;4.80;3.53;;;;;;;22.71;53.56;100424.91;125255;1102;103075;-77
2022/07/25 06:12:48;;;;;;;6.77;3.60;;;;;;;22.77;52.12;100427.48;125533;1102;102311;-78
2022/07/25 06:22:52;;;;;;;5.43;3.50;;;;;;;22.98;51.93;100410.18;125088;1102;104230;-79
2022/07/25 06:26:00;;;;;;;4.07;3.10;;;;;;;23.09;51.64;100405.59;124967;1102;104245;-80
2022/07/25 06:36:10;;;;;;;7.40;3.27;;;;;;;23.37;51.33;100396.16;125581;1102;102056;-78
2022/07/25 06:39:14;;;;;;;4.73;3.00;;;;;;;23.43;51.08;100396.04;125673;1099;103207;-77
2022/07/25 06:45:32;;;;;;;;;;;;;;;;;;;;;
2022/07/25 06:48:38;;;;;;;8.03;3.70;;;;;;;23.67;50.47;100402.73;125754;1099;104205;-79
2022/07/25 06:51:28;;;;;;;6.00;3.63;;;;;;;23.80;50.15;100392.64;125167;1102;104370;-80
2022/07/25 06:54:41;;;;;;;;;;;;;;;;;;;;;
2022/07/25 06:57:49;;;;;;;6.07;2.93;;;;;;;24.05;48.28;100399.26;125092;1100;102534;-79
2022/07/25 07:00:51;;;;;;;4.57;3.17;;;;;;;24.13;48.52;100396.41;125364;1102;103216;-80
2022/07/25 07:04:15;;;;;;;3.67;2.70;;;;;;;24.14;47.47;100392.83;124975;1102;104172;-79
2022/07/25 07:07:40;;;;;;;;;;;;;;;;;;;;;
2022/07/25 07:10:15;;;;;;;5.37;2.53;;;;;;;24.33;46.42;100395.97;124886;1105;105132;-81
2022/07/25 07:13:05;;;;;;;;;;;;;;;;;;;;;
2022/07/25 07:16:41;;;;;;;;;;;;;;;;;;;;;
2022/07/25 07:23:21;;;;;;;3.13;2.17;;;;;;;25.25;44.50;100408.08;125393;1105;101831;-79
2022/07/25 07:30:11;;;;;;;2.53;2.10;;;;;;;25.61;45.01;100394.59;125550;1105;102446;-82
2022/07/25 07:36:37;;;;;;;5.60;2.30;;;;;;;25.64;44.00;100399.87;125619;1102;104239;-80
2022/07/25 07:40:00;;;;;;;5.23;2.27;;;;;;;25.86;44.27;100401.95;125375;1102;104223;-80
2022/07/25 07:43:01;;;;;;;3.23;2.00;;;;;;;26.02;43.71;100392.53;125570;1102;104242;-81
2022/07/25 07:46:50;;;;;;;2.75;2.10;;;;;;;26.13;43.43;100395.80;126045;1102;102120;-81
2022/07/25 07:49:55;;;;;;;9.50;2.70;;;;;;;26.11;43.17;100394.06;125220;1102;104397;-80
2022/07/25 07:53:01;;;;;;;11.20;2.57;;;;;;;26.33;43.17;100383.52;125770;1099;103232;-82
2022/07/25 07:56:20;;;;;;;8.63;2.20;;;;;;;26.44;42.28;100384.05;125818;1099;104239;-80
2022/07/25 08:03:11;;;;;;;2.80;1.67;;;;;;;26.82;39.49;100379.27;125771;1099;104156;-81
2022/07/25 08:06:22;;;;;;;1.73;1.47;;;;;;;26.86;37.85;100382.73;125886;1099;104178;-81
2022/07/25 08:09:25;;;;;;;;;;;;;;;;;;;;;
2022/07/25 08:12:29;;;;;;;3.63;1.90;;;;;;;26.93;38.94;100378.02;125437;1102;104271;-80
2022/07/25 08:15:44;;;;;;;;;;;;;;;;;;;;;
2022/07/25 08:21:26;;;;;;;1.90;1.80;;;;;;;27.30;37.60;100374.05;124802;1105;104317;-80
2022/07/25 08:24:16;;;;;;;3.27;1.67;;;;;;;27.47;38.32;100363.56;124884;1105;104393;-80
2022/07/25 08:27:08;;;;;;;2.70;2.33;;;;;;;27.78;38.09;100362.42;125059;1105;102336;-79
2022/07/25 08:29:59;;;;;;;5.33;2.20;;;;;;;27.91;37.60;100360.16;124953;1106;104060;-80
2022/07/25 08:33:30;;;;;;;2.17;1.97;;;;;;;27.80;37.59;100365.96;124885;1105;104393;-79
2022/07/25 08:36:18;;;;;;;2.13;1.90;;;;;;;27.67;37.68;100362.83;124881;1105;101944;-80
2022/07/25 08:39:35;;;;;;;6.80;2.27;;;;;;;27.85;37.12;100355.87;125508;1105;104300;-80
2022/07/25 08:42:39;;;;;;;2.13;2.00;;;;;;;28.06;37.56;100362.27;125492;1105;104182;-80
2022/07/25 08:45:27;;;;;;;3.47;2.00;;;;;;;28.12;37.00;100356.63;125186;1105;102297;-80
2022/07/25 08:52:07;;;;;;;;;;;;;;;;;;;;;
2022/07/25 08:55:27;;;;;;;6.17;1.90;;;;;;;28.07;36.52;100342.45;124988;1102;107988;-80
2022/07/25 08:58:20;;;;;;;2.20;2.00;;;;;;;28.04;35.79;100337.19;125491;1102;101956;-81
2022/07/25 09:01:37;;;;;;;2.47;1.77;;;;;;;28.17;35.83;100337.57;125457;1102;102766;-80
2022/07/25 09:04:24;;;;;;;4.00;2.30;;;;;;;28.42;36.15;100339.27;125303;1102;104807;-81
2022/07/25 09:07:41;;;;;;;5.00;2.37;;;;;;;28.57;35.90;100338.64;124905;1102;102410;-81
2022/07/25 09:10:26;;;;;;;4.60;2.10;;;;;;;28.54;35.67;100338.77;124538;1105;104177;-80
2022/07/25 09:13:39;;;;;;;10.97;2.70;;;;;;;28.51;35.62;100344.30;125273;1105;102270;-80
2022/07/25 09:16:30;;;;;;;5.47;2.13;;;;;;;28.64;35.89;100344.69;125341;1105;102017;-80
2022/07/25 09:19:30;;;;;;;6.50;2.60;;;;;;;28.73;35.25;100338.91;125624;1109;104108;-81
2022/07/25 09:25:35;;;;;;;4.73;2.23;;;;;;;28.63;34.57;100329.45;125669;1109;101852;-80
2022/07/25 09:31:12;;;;;;;5.50;2.00;;;;;;;28.43;34.90;100343.74;125219;1105;104396;-81
2022/07/25 09:33:59;;;;;;;3.53;2.10;;;;;;;28.41;34.74;100345.64;125019;1105;103130;-79
2022/07/25 09:43:02;;;;;;;5.10;2.37;;;;;;;28.68;33.71;100338.23;125596;1105;102354;-80
2022/07/25 09:46:28;;;;;;;10.10;2.13;;;;;;;28.61;33.28;100336.72;125314;1105;104278;-79
2022/07/25 09:49:15;;;;;;;;;;;;;;;;;;;;;
2022/07/25 09:52:07;;;;;;;3.80;2.10;;;;;;;28.66;32.96;100332.03;126067;1102;104099;-80
2022/07/25 09:58:11;;;;;;;2.70;2.00;;;;;;;28.75;33.35;100314.54;127312;1098;101676;-80
2022/07/25 10:01:25;;;;;;;1.73;1.63;;;;;;;28.74;33.42;100321.77;127353;1098;101958;-80
2022/07/25 10:04:18;;;;;;;2.20;1.80;;;;;;;28.67;33.52;100321.16;125733;1099;104332;-80
2022/07/25 10:06:58;;;;;;;3.20;2.07;;;;;;;28.68;33.30;100322.90;125208;1099;102120;-79
2022/07/25 10:09:50;;;;;;;4.30;2.00;;;;;;;28.83;33.19;100315.98;125717;1099;104327;-79
2022/07/25 10:12:26;;;;;;;3.70;1.90;;;;;;;28.84;33.23;100316.84;125779;1099;104181;-82
2022/07/25 10:15:27;;;;;;;5.53;2.17;;;;;;;28.77;33.31;100304.58;126661;1098;102249;-82
2022/07/25 10:18:24;;;;;;;6.23;2.30;;;;;;;28.69;33.35;100310.30;125440;1102;107558;-81
2022/07/25 10:21:15;;;;;;;3.43;2.10;;;;;;;28.69;33.63;100321.97;125076;1102;102679;-79
2022/07/25 10:27:46;;;;;;;11.47;2.47;;;;;;;28.84;33.16;100304.24;125690;1099;102781;-79
2022/07/25 10:30:58;;;;;;;5.23;2.60;;;;;;;28.99;33.26;100309.91;125132;1099;104339;-79
2022/07/25 10:36:58;;;;;;;5.27;2.10;;;;;;;29.05;32.65;100304.23;125130;1099;102451;-81
2022/07/25 10:39:57;;;;;;;4.10;2.00;;;;;;;29.14;32.53;100302.94;125047;1102;104242;-81
2022/07/25 10:42:58;;;;;;;5.03;1.97;;;;;;;29.42;32.18;100302.63;125145;1099;102323;-81
2022/07/25 10:45:59;;;;;;;3.50;2.00;;;;;;;29.43;32.48;100289.98;125128;1099;102317;-80
2022/07/25 10:48:57;;;;;;;6.73;2.10;;;;;;;29.44;32.17;100289.03;125571;1099;104166;-79
2022/07/25 10:52:07;;;;;;;5.63;2.17;;;;;;;29.37;31.75;100296.53;126343;1099;103259;-79
2022/07/25 10:55:00;;;;;;;4.93;2.37;;;;;;;29.43;32.04;100285.44;125165;1099;104173;-81
2022/07/25 10:58:22;;;;;;;2.20;2.00;;;;;;;29.60;31.67;100281.08;126462;1098;102162;-79
2022/07/25 11:01:36;;;;;;;4.97;2.43;;;;;;;29.87;31.75;100287.02;126037;1098;102026;-79
2022/07/25 11:07:53;;;;;;;2.60;2.20;;;;;;;29.86;31.13;100279.88;126405;1099;102089;-78
2022/07/25 11:10:52;;;;;;;;;;;;;;;29.66;30.41;100278.95;126674;1098;102257;-81
2022/07/25 11:14:07;;;;;;;6.87;2.23;;;;;;;29.62;31.19;100281.88;127552;1098;101514;-81
2022/07/25 11:17:55;;;;;;;;;;;;;;;;;;;;;
2022/07/25 11:20:47;;;;;;;3.15;1.92;;;;;;;29.39;31.24;100271.20;125544;1102;107124;-79
2022/07/25 11:31:42;;;;;;;;;;;;;;;;;;;;;
2022/07/25 11:35:00;;;;;;;5.87;2.40;;;;;;;29.65;31.25;100263.67;124988;1105;102834;-80
2022/07/25 11:38:05;;;;;;;6.07;2.30;;;;;;;29.46;30.90;100260.10;125164;1105;104329;-80
2022/07/25 11:41:11;;;;;;;;;;;;;;;;;;;;;
2022/07/25 11:44:22;;;;;;;4.67;2.37;;;;;;;29.40;31.36;100262.16;124961;1105;102766;-78
2022/07/25 11:48:00;;;;;;;3.10;2.30;;;;;;;29.33;30.90;100260.67;125129;1105;104411;-80
2022/07/25 11:51:02;;;;;;;4.10;2.17;;;;;;;29.44;31.16;100251.20;124915;1102;104268;-79
2022/07/25 11:53:56;;;;;;;3.07;2.30;;;;;;;29.39;30.67;100237.91;125488;1102;104456;-79
2022/07/25 11:57:04;;;;;;;3.50;2.30;;;;;;;29.38;31.17;100252.36;125723;1102;104456;-79
2022/07/25 12:00:17;;;;;;;5.90;2.33;;;;;;;29.11;31.30;100238.23;125527;1102;102429;-77
2022/07/25 12:03:19;;;;;;;2.30;2.10;;;;;;;29.00;31.42;100242.33;125050;1102;104213;-77
2022/07/25 12:06:18;;;;;;;6.50;2.63;;;;;;;29.12;31.61;100248.98;125479;1099;104179;-77
2022/07/25 12:08:54;;;;;;;5.83;2.20;;;;;;;29.27;31.08;100238.47;124883;1099;104395;-76
2022/07/25 12:11:57;;;;;;;2.87;1.97;;;;;;;29.31;30.35;100237.36;126314;1098;104611;-76
2022/07/25 12:15:12;;;;;;;;;;;;;;;;;;;;;
2022/07/25 12:18:21;;;;;;;5.87;2.40;;;;;;;29.20;30.61;100237.85;126703;1098;102307;-79
2022/07/25 12:21:19;;;;;;;3.40;2.30;;;;;;;29.33;30.85;100225.55;125736;1099;102427;-78
2022/07/25 12:24:31;;;;;;;;;;;;;;;;;;;;;
2022/07/25 12:28:05;;;;;;;8.93;2.17;;;;;;;29.64;30.52;100226.80;125533;1099;104194;-78
2022/07/25 12:40:54;;;;;;;;;;;;;;;29.79;29.59;100203.53;125576;1099;102797;-81
2022/07/25 12:47:06;;;;;;;6.13;2.50;;;;;;;29.86;30.08;100194.20;126226;1098;101799;-79
2022/07/25 12:50:24;;;;;;;;;;;;;;;;;;;;;
2022/07/25 12:53:49;;;;;;;4.80;2.50;;;;;;;30.16;29.74;100185.50;125676;1098;103593;-81
2022/07/25 12:56:39;;;;;;;8.10;2.57;;;;;;;30.10;29.70;100181.27;126305;1099;104166;-78
2022/07/25 12:59:51;;;;;;;9.73;2.63;;;;;;;30.09;29.73;100178.64;125769;1099;104054;-79
2022/07/25 13:02:42;;;;;;;5.40;2.43;;;;;;;30.03;29.87;100169.02;125586;1102;102095;-79
2022/07/25 13:05:50;;;;;;;3.43;2.10;;;;;;;30.01;29.43;100170.05;125091;1102;104223;-79
2022/07/25 13:09:15;;;;;;;;;;;;;;;;;;;;;
2022/07/25 13:12:21;;;;;;;9.97;2.80;;;;;;;29.80;30.04;100166.60;124994;1103;104223;-81
2022/07/25 13:18:34;;;;;;;5.93;2.80;;;;;;;29.70;29.66;100174.23;126164;1105;102741;-80
2022/07/25 13:21:45;;;;;;;3.23;2.27;;;;;;;29.65;29.85;100158.23;125134;1106;102265;-80
2022/07/25 13:24:33;;;;;;;3.00;2.50;;;;;;;29.55;29.90;100156.95;124972;1106;104325;-81
2022/07/25 13:27:34;;;;;;;2.60;2.17;;;;;;;29.49;29.71;100162.66;124817;1105;107376;-78
2022/07/25 13:30:19;;;;;;;6.93;2.67;;;;;;;29.42;30.02;100153.98;124863;1105;102487;-79
2022/07/25 13:33:05;;;;;;;3.30;2.40;;;;;;;29.29;30.11;100160.91;124896;1106;103478;-81
2022/07/25 13:35:59;;;;;;;6.53;2.43;;;;;;;29.36;30.25;100146.17;125167;1102;104398;-81
2022/07/25 13:41:52;;;;;;;2.40;2.20;;;;;;;29.75;30.07;100146.03;125521;1102;102953;-81
2022/07/25 13:44:52;;;;;;;3.03;2.40;;;;;;;29.95;29.65;100138.80;125689;1102;102358;-81
2022/07/25 13:48:03;;;;;;;6.30;2.77;;;;;;;30.07;29.47;100139.97;125644;1099;113112;-81
2022/07/25 13:51:44;;;;;;;9.93;2.50;;;;;;;30.27;29.59;100144.36;125734;1099;104192;-81
2022/07/25 13:54:41;;;;;;;;;;;;;;;;;;;;;
2022/07/25 13:57:58;;;;;;;8.53;2.50;;;;;;;30.34;29.38;100139.50;126501;1098;102672;-81
2022/07/25 14:04:32;;;;;;;2.80;2.60;;;;;;;30.16;28.81;100142.21;125042;1103;102438;-81
2022/07/25 14:08:00;;;;;;;5.00;2.37;;;;;;;30.04;28.88;100145.55;125000;1102;104181;-82
2022/07/25 14:10:56;;;;;;;4.23;2.33;;;;;;;30.00;28.93;100131.31;125488;1102;104637;-81
2022/07/25 14:13:59;;;;;;;7.45;2.90;;;;;;;29.99;28.95;100128.69;125051;1102;104334;-81
2022/07/25 14:20:16;;;;;;;3.47;2.17;;;;;;;29.93;29.19;100129.86;125173;1105;102180;-80
2022/07/25 14:26:52;;;;;;;5.85;2.30;;;;;;;29.88;29.05;100121.11;124947;1105;103681;-81
2022/07/25 14:30:05;;;;;;;9.97;3.73;;;;;;;29.98;28.87;100126.92;124914;1105;107098;-79
2022/07/25 14:33:15;;;;;;;;;;;;;;;;;;;;;
2022/07/25 14:36:11;;;;;;;;;;;;;;;;;;;;;
2022/07/25 14:39:04;;;;;;;2.40;1.93;;;;;;;30.05;28.89;100106.73;125373;1102;102390;-78
2022/07/25 14:41:36;;;;;;;4.30;2.30;;;;;;;30.00;28.97;100103.39;125054;1102;104182;-78
2022/07/25 14:44:25;;;;;;;4.03;2.40;;;;;;;29.95;29.09;100106.34;125263;1102;102204;-79
2022/07/25 14:47:27;;;;;;;3.13;2.30;;;;;;;29.84;29.11;100106.88;125627;1102;104245;-79
2022/07/25 14:50:22;;;;;;;5.73;2.63;;;;;;;29.79;29.18;100100.78;125861;1102;102359;-78
2022/07/25 14:52:57;;;;;;;4.03;2.23;;;;;;;29.63;29.15;100106.09;125800;1098;104234;-78
2022/07/25 14:56:00;;;;;;;4.77;2.50;;;;;;;29.47;29.46;100105.11;125802;1099;102957;-78
2022/07/25 14:58:38;;;;;;;4.50;2.50;;;;;;;29.43;29.36;100098.09;125180;1099;104197;-78
2022/07/25 15:01:24;;;;;;;3.93;2.40;;;;;;;29.39;29.54;100097.38;126903;1098;103145;-79
2022/07/25 15:04:02;;;;;;;3.40;2.47;;;;;;;29.35;29.35;100102.03;126505;1098;104322;-79
2022/07/25 15:06:43;;;;;;;;;;;;;;;29.31;29.32;100088.75;126655;1099;101680;-78
2022/07/25 15:09:16;;;;;;;4.97;2.60;;;;;;;29.30;29.26;100092.42;125714;1099;102405;-79
2022/07/25 15:11:53;;;;;;;7.17;2.20;;;;;;;29.29;29.51;100099.62;125198;1099;107089;-79
2022/07/25 15:14:28;;;;;;;2.93;2.40;;;;;;;29.25;29.69;100095.34;125844;1099;104205;-79